sensor_id;sensor_type;location;lat;lon;timestamp;temperature;humidity
65460;DHT22;52058;49.822;6.754;2023-04-30T00:01:16;10.77;93.58
65460;DHT22;52058;49.822;6.754;2023-04-30T00:03:43;10.81;93.32
65460;DHT22;52058;49.822;6.754;2023-04-30T00:06:09;10.77;92.98
65460;DHT22;52058;49.822;6.754;2023-04-30T00:08:36;10.74;93.60
65460;DHT22;52058;49.822;6.754;2023-04-30T00:11:04;10.68;93.71
65460;DHT22;52058;49.822;6.754;2023-04-30T00:13:30;10.65;94.04
65460;DHT22;52058;49.822;6.754;2023-04-30T00:15:57;10.57;94.09
65460;DHT22;52058;49.822;6.754;2023-04-30T00:18:24;10.53;94.18
65460;DHT22;52058;49.822;6.754;2023-04-30T00:20:50;10.50;94.27
65460;DHT22;52058;49.822;6.754;2023-04-30T00:23:17;10.44;94.45
65460;DHT22;52058;49.822;6.754;2023-04-30T00:25:44;10.44;94.63
65460;DHT22;52058;49.822;6.754;2023-04-30T00:28:12;10.44;94.72
65460;DHT22;52058;49.822;6.754;2023-04-30T00:30:39;10.40;94.45
65460;DHT22;52058;49.822;6.754;2023-04-30T00:33:05;10.41;94.57
65460;DHT22;52058;49.822;6.754;2023-04-30T00:35:32;10.36;94.59
65460;DHT22;52058;49.822;6.754;2023-04-30T00:37:58;10.36;94.61
65460;DHT22;52058;49.822;6.754;2023-04-30T00:40:25;10.33;94.68
65460;DHT22;52058;49.822;6.754;2023-04-30T00:42:52;10.33;94.76
65460;DHT22;52058;49.822;6.754;2023-04-30T00:45:21;10.29;94.62
65460;DHT22;52058;49.822;6.754;2023-04-30T00:47:48;10.29;94.81
65460;DHT22;52058;49.822;6.754;2023-04-30T00:50:15;10.29;94.88
65460;DHT22;52058;49.822;6.754;2023-04-30T00:52:42;10.26;94.45
65460;DHT22;52058;49.822;6.754;2023-04-30T00:55:12;10.32;94.48
65460;DHT22;52058;49.822;6.754;2023-04-30T00:57:39;10.24;94.56
65460;DHT22;52058;49.822;6.754;2023-04-30T01:00:07;10.30;94.65
65460;DHT22;52058;49.822;6.754;2023-04-30T01:02:37;10.26;94.51
65460;DHT22;52058;49.822;6.754;2023-04-30T01:05:05;10.27;94.58
65460;DHT22;52058;49.822;6.754;2023-04-30T01:07:33;10.27;94.41
65460;DHT22;52058;49.822;6.754;2023-04-30T01:10:00;10.27;94.39
65460;DHT22;52058;49.822;6.754;2023-04-30T01:12:34;10.19;94.57
65460;DHT22;52058;49.822;6.754;2023-04-30T01:15:07;10.16;94.60
65460;DHT22;52058;49.822;6.754;2023-04-30T01:17:40;10.13;94.63
65460;DHT22;52058;49.822;6.754;2023-04-30T01:20:09;10.14;94.66
65460;DHT22;52058;49.822;6.754;2023-04-30T01:22:45;10.10;94.76
65460;DHT22;52058;49.822;6.754;2023-04-30T01:25:30;10.06;94.88
65460;DHT22;52058;49.822;6.754;2023-04-30T01:28:04;10.06;94.92
65460;DHT22;52058;49.822;6.754;2023-04-30T01:30:31;10.02;94.94
65460;DHT22;52058;49.822;6.754;2023-04-30T01:32:59;10.02;95.19
65460;DHT22;52058;49.822;6.754;2023-04-30T01:35:34;10.02;95.16
65460;DHT22;52058;49.822;6.754;2023-04-30T01:38:13;10.02;95.17
65460;DHT22;52058;49.822;6.754;2023-04-30T01:40:48;10.05;95.22
65460;DHT22;52058;49.822;6.754;2023-04-30T01:43:23;10.05;95.09
65460;DHT22;52058;49.822;6.754;2023-04-30T01:46:02;10.05;95.05
65460;DHT22;52058;49.822;6.754;2023-04-30T01:48:40;9.98;95.27
65460;DHT22;52058;49.822;6.754;2023-04-30T01:51:14;9.99;95.30
65460;DHT22;52058;49.822;6.754;2023-04-30T01:53:42;10.00;95.31
65460;DHT22;52058;49.822;6.754;2023-04-30T01:56:17;10.05;95.21
65460;DHT22;52058;49.822;6.754;2023-04-30T01:58:48;10.03;95.14
65460;DHT22;52058;49.822;6.754;2023-04-30T02:01:28;10.05;95.10
65460;DHT22;52058;49.822;6.754;2023-04-30T02:03:55;10.06;95.11
65460;DHT22;52058;49.822;6.754;2023-04-30T02:06:22;10.05;95.13
65460;DHT22;52058;49.822;6.754;2023-04-30T02:08:52;10.03;95.20
65460;DHT22;52058;49.822;6.754;2023-04-30T02:11:18;10.02;95.21
65460;DHT22;52058;49.822;6.754;2023-04-30T02:13:46;10.02;95.17
65460;DHT22;52058;49.822;6.754;2023-04-30T02:16:13;10.03;94.98
65460;DHT22;52058;49.822;6.754;2023-04-30T02:18:39;10.05;94.94
65460;DHT22;52058;49.822;6.754;2023-04-30T02:21:06;10.05;94.82
65460;DHT22;52058;49.822;6.754;2023-04-30T02:23:32;10.06;94.81
65460;DHT22;52058;49.822;6.754;2023-04-30T02:25:59;10.08;94.74
65460;DHT22;52058;49.822;6.754;2023-04-30T02:28:27;10.05;94.77
65460;DHT22;52058;49.822;6.754;2023-04-30T02:30:55;10.06;94.78
65460;DHT22;52058;49.822;6.754;2023-04-30T02:33:21;10.00;94.89
65460;DHT22;52058;49.822;6.754;2023-04-30T02:35:48;10.03;95.02
65460;DHT22;52058;49.822;6.754;2023-04-30T02:38:14;10.05;95.03
65460;DHT22;52058;49.822;6.754;2023-04-30T02:40:41;10.05;94.94
65460;DHT22;52058;49.822;6.754;2023-04-30T02:43:08;10.06;94.75
65460;DHT22;52058;49.822;6.754;2023-04-30T02:45:34;10.05;94.69
65460;DHT22;52058;49.822;6.754;2023-04-30T02:48:02;10.05;94.71
65460;DHT22;52058;49.822;6.754;2023-04-30T02:50:29;10.02;94.90
65460;DHT22;52058;49.822;6.754;2023-04-30T02:52:56;10.02;94.98
65460;DHT22;52058;49.822;6.754;2023-04-30T02:55:22;10.02;94.77
65460;DHT22;52058;49.822;6.754;2023-04-30T02:57:49;10.03;94.84
65460;DHT22;52058;49.822;6.754;2023-04-30T03:00:16;10.02;94.80
65460;DHT22;52058;49.822;6.754;2023-04-30T03:02:42;10.06;94.70
65460;DHT22;52058;49.822;6.754;2023-04-30T03:05:13;10.03;94.77
65460;DHT22;52058;49.822;6.754;2023-04-30T03:07:40;10.05;94.66
65460;DHT22;52058;49.822;6.754;2023-04-30T03:10:07;10.05;94.90
65460;DHT22;52058;49.822;6.754;2023-04-30T03:12:34;10.02;94.77
65460;DHT22;52058;49.822;6.754;2023-04-30T03:15:01;10.05;94.69
65460;DHT22;52058;49.822;6.754;2023-04-30T03:17:27;10.08;94.60
65460;DHT22;52058;49.822;6.754;2023-04-30T03:19:54;10.06;94.70
65460;DHT22;52058;49.822;6.754;2023-04-30T03:22:23;10.06;94.77
65460;DHT22;52058;49.822;6.754;2023-04-30T03:24:50;10.02;94.61
65460;DHT22;52058;49.822;6.754;2023-04-30T03:27:17;10.03;94.53
65460;DHT22;52058;49.822;6.754;2023-04-30T03:29:43;10.05;94.59
65460;DHT22;52058;49.822;6.754;2023-04-30T03:32:10;10.02;94.63
65460;DHT22;52058;49.822;6.754;2023-04-30T03:34:37;10.00;94.54
65460;DHT22;52058;49.822;6.754;2023-04-30T03:37:03;10.00;94.56
65460;DHT22;52058;49.822;6.754;2023-04-30T03:39:31;10.00;94.54
65460;DHT22;52058;49.822;6.754;2023-04-30T03:41:58;10.00;94.53
65460;DHT22;52058;49.822;6.754;2023-04-30T03:44:24;9.96;94.72
65460;DHT22;52058;49.822;6.754;2023-04-30T03:46:51;9.96;94.87
65460;DHT22;52058;49.822;6.754;2023-04-30T03:49:17;9.93;94.89
65460;DHT22;52058;49.822;6.754;2023-04-30T03:51:44;9.93;94.89
65460;DHT22;52058;49.822;6.754;2023-04-30T03:54:11;9.93;94.85
65460;DHT22;52058;49.822;6.754;2023-04-30T03:56:42;9.92;95.01
65460;DHT22;52058;49.822;6.754;2023-04-30T03:59:08;9.89;95.16
65460;DHT22;52058;49.822;6.754;2023-04-30T04:01:37;9.89;95.24
65460;DHT22;52058;49.822;6.754;2023-04-30T04:04:04;9.86;95.18
65460;DHT22;52058;49.822;6.754;2023-04-30T04:06:34;9.85;95.27
65460;DHT22;52058;49.822;6.754;2023-04-30T04:09:00;9.82;95.28
65460;DHT22;52058;49.822;6.754;2023-04-30T04:11:28;9.83;95.16
65460;DHT22;52058;49.822;6.754;2023-04-30T04:13:59;9.83;95.30
65460;DHT22;52058;49.822;6.754;2023-04-30T04:16:25;9.85;95.17
65460;DHT22;52058;49.822;6.754;2023-04-30T04:18:52;9.81;95.35
65460;DHT22;52058;49.822;6.754;2023-04-30T04:21:19;9.83;95.24
65460;DHT22;52058;49.822;6.754;2023-04-30T04:23:45;9.86;95.16
65460;DHT22;52058;49.822;6.754;2023-04-30T04:26:12;9.92;94.98
65460;DHT22;52058;49.822;6.754;2023-04-30T04:28:42;9.93;94.85
65460;DHT22;52058;49.822;6.754;2023-04-30T04:31:13;9.99;94.77
65460;DHT22;52058;49.822;6.754;2023-04-30T04:33:40;10.00;94.75
65460;DHT22;52058;49.822;6.754;2023-04-30T04:36:07;10.02;94.70
65460;DHT22;52058;49.822;6.754;2023-04-30T04:38:39;10.02;94.72
65460;DHT22;52058;49.822;6.754;2023-04-30T04:41:06;10.08;94.72
65460;DHT22;52058;49.822;6.754;2023-04-30T04:43:33;10.06;94.60
65460;DHT22;52058;49.822;6.754;2023-04-30T04:46:01;10.14;94.52
65460;DHT22;52058;49.822;6.754;2023-04-30T04:48:31;10.19;94.12
65460;DHT22;52058;49.822;6.754;2023-04-30T04:50:58;10.21;94.12
65460;DHT22;52058;49.822;6.754;2023-04-30T04:53:25;10.27;93.78
65460;DHT22;52058;49.822;6.754;2023-04-30T04:55:51;10.27;93.56
65460;DHT22;52058;49.822;6.754;2023-04-30T04:58:18;10.33;93.62
65460;DHT22;52058;49.822;6.754;2023-04-30T05:00:45;10.37;93.51
65460;DHT22;52058;49.822;6.754;2023-04-30T05:03:11;10.39;93.27
65460;DHT22;52058;49.822;6.754;2023-04-30T05:05:39;10.47;93.15
65460;DHT22;52058;49.822;6.754;2023-04-30T05:08:06;10.50;92.93
65460;DHT22;52058;49.822;6.754;2023-04-30T05:10:33;10.54;92.67
65460;DHT22;52058;49.822;6.754;2023-04-30T05:12:59;10.63;92.55
65460;DHT22;52058;49.822;6.754;2023-04-30T05:15:26;10.65;92.44
65460;DHT22;52058;49.822;6.754;2023-04-30T05:17:53;10.70;92.37
65460;DHT22;52058;49.822;6.754;2023-04-30T05:20:19;10.71;92.24
65460;DHT22;52058;49.822;6.754;2023-04-30T05:22:47;10.81;91.92
65460;DHT22;52058;49.822;6.754;2023-04-30T05:25:14;10.85;91.78
65460;DHT22;52058;49.822;6.754;2023-04-30T05:27:41;10.97;91.61
65460;DHT22;52058;49.822;6.754;2023-04-30T05:30:08;10.99;91.50
65460;DHT22;52058;49.822;6.754;2023-04-30T05:32:35;10.98;91.39
65460;DHT22;52058;49.822;6.754;2023-04-30T05:35:02;11.08;91.24
65460;DHT22;52058;49.822;6.754;2023-04-30T05:37:29;11.14;90.87
65460;DHT22;52058;49.822;6.754;2023-04-30T05:39:57;11.19;90.78
65460;DHT22;52058;49.822;6.754;2023-04-30T05:42:23;11.18;90.48
65460;DHT22;52058;49.822;6.754;2023-04-30T05:44:50;11.30;90.34
65460;DHT22;52058;49.822;6.754;2023-04-30T05:47:17;11.37;89.80
65460;DHT22;52058;49.822;6.754;2023-04-30T05:49:43;11.43;89.71
65460;DHT22;52058;49.822;6.754;2023-04-30T05:52:10;11.47;89.72
65460;DHT22;52058;49.822;6.754;2023-04-30T05:54:37;11.56;89.33
65460;DHT22;52058;49.822;6.754;2023-04-30T05:57:05;11.60;89.38
65460;DHT22;52058;49.822;6.754;2023-04-30T05:59:32;11.55;89.42
65460;DHT22;52058;49.822;6.754;2023-04-30T06:01:58;11.59;89.34
65460;DHT22;52058;49.822;6.754;2023-04-30T06:04:25;11.53;89.72
65460;DHT22;52058;49.822;6.754;2023-04-30T06:06:51;11.43;89.96
65460;DHT22;52058;49.822;6.754;2023-04-30T06:09:18;11.35;90.47
65460;DHT22;52058;49.822;6.754;2023-04-30T06:11:45;11.26;90.74
65460;DHT22;52058;49.822;6.754;2023-04-30T06:14:16;11.16;91.13
65460;DHT22;52058;49.822;6.754;2023-04-30T06:16:43;11.08;91.55
65460;DHT22;52058;49.822;6.754;2023-04-30T06:19:09;11.05;91.38
65460;DHT22;52058;49.822;6.754;2023-04-30T06:21:36;11.01;91.16
65460;DHT22;52058;49.822;6.754;2023-04-30T06:24:03;11.05;91.27
65460;DHT22;52058;49.822;6.754;2023-04-30T06:26:29;11.09;90.88
65460;DHT22;52058;49.822;6.754;2023-04-30T06:28:56;11.14;90.52
65460;DHT22;52058;49.822;6.754;2023-04-30T06:31:24;11.18;90.58
65460;DHT22;52058;49.822;6.754;2023-04-30T06:33:51;11.08;90.69
65460;DHT22;52058;49.822;6.754;2023-04-30T06:36:18;11.06;90.52
65460;DHT22;52058;49.822;6.754;2023-04-30T06:38:44;11.20;90.58
65460;DHT22;52058;49.822;6.754;2023-04-30T06:41:11;11.19;90.67
65460;DHT22;52058;49.822;6.754;2023-04-30T06:43:38;11.20;90.60
65460;DHT22;52058;49.822;6.754;2023-04-30T06:46:05;11.23;90.44
65460;DHT22;52058;49.822;6.754;2023-04-30T06:48:33;11.20;89.71
65460;DHT22;52058;49.822;6.754;2023-04-30T06:51:00;11.29;89.55
65460;DHT22;52058;49.822;6.754;2023-04-30T06:53:26;11.39;88.87
65460;DHT22;52058;49.822;6.754;2023-04-30T06:55:53;11.40;88.62
65460;DHT22;52058;49.822;6.754;2023-04-30T06:58:19;11.37;88.58
65460;DHT22;52058;49.822;6.754;2023-04-30T07:00:46;11.42;89.21
65460;DHT22;52058;49.822;6.754;2023-04-30T07:03:13;11.60;88.21
65460;DHT22;52058;49.822;6.754;2023-04-30T07:05:41;11.77;87.50
65460;DHT22;52058;49.822;6.754;2023-04-30T07:08:07;11.87;85.56
65460;DHT22;52058;49.822;6.754;2023-04-30T07:10:34;11.84;86.18
65460;DHT22;52058;49.822;6.754;2023-04-30T07:13:01;11.97;85.60
65460;DHT22;52058;49.822;6.754;2023-04-30T07:15:27;12.11;85.16
65460;DHT22;52058;49.822;6.754;2023-04-30T07:17:54;12.29;83.78
65460;DHT22;52058;49.822;6.754;2023-04-30T07:20:21;12.35;82.89
65460;DHT22;52058;49.822;6.754;2023-04-30T07:22:49;12.48;83.02
65460;DHT22;52058;49.822;6.754;2023-04-30T07:25:15;12.53;82.31
65460;DHT22;52058;49.822;6.754;2023-04-30T07:27:42;12.59;81.60
65460;DHT22;52058;49.822;6.754;2023-04-30T07:30:09;12.67;80.09
65460;DHT22;52058;49.822;6.754;2023-04-30T07:32:36;12.73;80.28
65460;DHT22;52058;49.822;6.754;2023-04-30T07:35:05;12.73;79.67
65460;DHT22;52058;49.822;6.754;2023-04-30T07:37:32;12.86;79.74
65460;DHT22;52058;49.822;6.754;2023-04-30T07:40:00;13.06;78.99
65460;DHT22;52058;49.822;6.754;2023-04-30T07:42:26;13.04;78.88
65460;DHT22;52058;49.822;6.754;2023-04-30T07:44:53;13.18;77.87
65460;DHT22;52058;49.822;6.754;2023-04-30T07:47:19;13.21;76.47
65460;DHT22;52058;49.822;6.754;2023-04-30T07:49:46;13.25;76.19
65460;DHT22;52058;49.822;6.754;2023-04-30T07:52:13;13.21;76.97
65460;DHT22;52058;49.822;6.754;2023-04-30T07:54:39;13.34;76.83
65460;DHT22;52058;49.822;6.754;2023-04-30T07:57:07;13.51;76.26
65460;DHT22;52058;49.822;6.754;2023-04-30T07:59:34;13.48;74.97
65460;DHT22;52058;49.822;6.754;2023-04-30T08:02:00;13.55;75.08
65460;DHT22;52058;49.822;6.754;2023-04-30T08:04:28;13.69;73.91
65460;DHT22;52058;49.822;6.754;2023-04-30T08:06:54;13.69;74.26
65460;DHT22;52058;49.822;6.754;2023-04-30T08:09:21;13.71;74.76
65460;DHT22;52058;49.822;6.754;2023-04-30T08:11:47;13.63;74.45
65460;DHT22;52058;49.822;6.754;2023-04-30T08:14:15;13.73;73.39
65460;DHT22;52058;49.822;6.754;2023-04-30T08:16:42;13.81;72.59
65460;DHT22;52058;49.822;6.754;2023-04-30T08:19:08;13.92;70.30
65460;DHT22;52058;49.822;6.754;2023-04-30T08:21:35;14.13;70.75
65460;DHT22;52058;49.822;6.754;2023-04-30T08:24:02;14.16;68.65
65460;DHT22;52058;49.822;6.754;2023-04-30T08:26:28;14.29;68.82
65460;DHT22;52058;49.822;6.754;2023-04-30T08:28:55;14.42;69.52
65460;DHT22;52058;49.822;6.754;2023-04-30T08:31:23;14.50;69.74
65460;DHT22;52058;49.822;6.754;2023-04-30T08:33:49;14.33;67.59
65460;DHT22;52058;49.822;6.754;2023-04-30T08:36:16;14.34;68.32
65460;DHT22;52058;49.822;6.754;2023-04-30T08:38:43;14.58;65.99
65460;DHT22;52058;49.822;6.754;2023-04-30T08:41:11;14.72;66.73
65460;DHT22;52058;49.822;6.754;2023-04-30T08:43:38;14.75;66.33
65460;DHT22;52058;49.822;6.754;2023-04-30T08:46:05;14.75;66.81
65460;DHT22;52058;49.822;6.754;2023-04-30T08:48:34;14.87;65.08
65460;DHT22;52058;49.822;6.754;2023-04-30T08:51:00;15.13;64.47
65460;DHT22;52058;49.822;6.754;2023-04-30T08:53:28;15.33;64.03
65460;DHT22;52058;49.822;6.754;2023-04-30T08:55:54;15.43;63.63
65460;DHT22;52058;49.822;6.754;2023-04-30T08:58:21;15.66;62.36
65460;DHT22;52058;49.822;6.754;2023-04-30T09:00:48;15.68;62.17
65460;DHT22;52058;49.822;6.754;2023-04-30T09:03:14;15.64;63.64
65460;DHT22;52058;49.822;6.754;2023-04-30T09:05:42;15.60;63.72
65460;DHT22;52058;49.822;6.754;2023-04-30T09:08:15;15.66;64.11
65460;DHT22;52058;49.822;6.754;2023-04-30T09:10:42;15.96;63.60
65460;DHT22;52058;49.822;6.754;2023-04-30T09:13:09;15.80;61.61
65460;DHT22;52058;49.822;6.754;2023-04-30T09:15:37;15.98;62.49
65460;DHT22;52058;49.822;6.754;2023-04-30T09:18:07;16.18;60.39
65460;DHT22;52058;49.822;6.754;2023-04-30T09:20:34;16.18;62.73
65460;DHT22;52058;49.822;6.754;2023-04-30T09:23:06;16.30;61.18
65460;DHT22;52058;49.822;6.754;2023-04-30T09:25:39;16.57;60.10
65460;DHT22;52058;49.822;6.754;2023-04-30T09:28:10;16.65;59.62
65460;DHT22;52058;49.822;6.754;2023-04-30T09:30:37;16.66;60.56
65460;DHT22;52058;49.822;6.754;2023-04-30T09:33:04;16.63;58.74
65460;DHT22;52058;49.822;6.754;2023-04-30T09:35:32;16.67;58.59
65460;DHT22;52058;49.822;6.754;2023-04-30T09:37:59;16.81;58.38
65460;DHT22;52058;49.822;6.754;2023-04-30T09:40:36;16.76;58.52
65460;DHT22;52058;49.822;6.754;2023-04-30T09:43:03;16.84;58.33
65460;DHT22;52058;49.822;6.754;2023-04-30T09:45:40;16.91;57.61
65460;DHT22;52058;49.822;6.754;2023-04-30T09:48:08;16.88;57.12
65460;DHT22;52058;49.822;6.754;2023-04-30T09:50:36;16.96;58.19
65460;DHT22;52058;49.822;6.754;2023-04-30T09:53:05;17.04;58.27
65460;DHT22;52058;49.822;6.754;2023-04-30T09:55:35;16.91;57.35
65460;DHT22;52058;49.822;6.754;2023-04-30T09:58:04;17.03;58.11
65460;DHT22;52058;49.822;6.754;2023-04-30T10:00:31;16.86;56.24
65460;DHT22;52058;49.822;6.754;2023-04-30T10:03:01;17.04;58.33
65460;DHT22;52058;49.822;6.754;2023-04-30T10:05:30;17.30;57.05
65460;DHT22;52058;49.822;6.754;2023-04-30T10:07:58;17.30;56.68
65460;DHT22;52058;49.822;6.754;2023-04-30T10:10:25;17.65;57.65
65460;DHT22;52058;49.822;6.754;2023-04-30T10:12:59;17.41;55.73
65460;DHT22;52058;49.822;6.754;2023-04-30T10:15:31;17.39;56.43
65460;DHT22;52058;49.822;6.754;2023-04-30T10:18:01;17.45;56.23
65460;DHT22;52058;49.822;6.754;2023-04-30T10:20:30;17.68;57.01
65460;DHT22;52058;49.822;6.754;2023-04-30T10:22:57;17.72;55.54
65460;DHT22;52058;49.822;6.754;2023-04-30T10:25:24;17.89;56.76
65460;DHT22;52058;49.822;6.754;2023-04-30T10:27:53;18.02;55.95
65460;DHT22;52058;49.822;6.754;2023-04-30T10:30:21;18.14;56.01
65460;DHT22;52058;49.822;6.754;2023-04-30T10:32:52;18.13;53.83
65460;DHT22;52058;49.822;6.754;2023-04-30T10:35:25;18.47;56.02
65460;DHT22;52058;49.822;6.754;2023-04-30T10:37:54;18.51;55.08
65460;DHT22;52058;49.822;6.754;2023-04-30T10:40:25;18.36;54.88
65460;DHT22;52058;49.822;6.754;2023-04-30T10:42:54;18.48;55.32
65460;DHT22;52058;49.822;6.754;2023-04-30T10:45:33;18.52;55.39
65460;DHT22;52058;49.822;6.754;2023-04-30T10:48:01;18.31;55.25
65460;DHT22;52058;49.822;6.754;2023-04-30T10:50:28;18.48;59.19
65460;DHT22;52058;49.822;6.754;2023-04-30T10:53:01;18.60;55.66
65460;DHT22;52058;49.822;6.754;2023-04-30T10:55:28;18.72;54.65
65460;DHT22;52058;49.822;6.754;2023-04-30T10:58:24;19.06;54.22
65460;DHT22;52058;49.822;6.754;2023-04-30T11:01:05;18.95;53.18
65460;DHT22;52058;49.822;6.754;2023-04-30T11:03:39;18.99;51.75
65460;DHT22;52058;49.822;6.754;2023-04-30T11:06:07;19.19;51.55
65460;DHT22;52058;49.822;6.754;2023-04-30T11:08:35;19.29;52.18
65460;DHT22;52058;49.822;6.754;2023-04-30T11:11:02;19.37;51.98
65460;DHT22;52058;49.822;6.754;2023-04-30T11:13:39;19.88;50.76
65460;DHT22;52058;49.822;6.754;2023-04-30T11:16:07;20.04;50.90
65460;DHT22;52058;49.822;6.754;2023-04-30T11:18:40;20.22;51.52
65460;DHT22;52058;49.822;6.754;2023-04-30T11:21:07;19.84;50.21
65460;DHT22;52058;49.822;6.754;2023-04-30T11:23:35;20.08;50.11
65460;DHT22;52058;49.822;6.754;2023-04-30T11:26:01;19.84;49.37
65460;DHT22;52058;49.822;6.754;2023-04-30T11:28:32;20.09;51.26
65460;DHT22;52058;49.822;6.754;2023-04-30T11:31:04;20.04;50.87
65460;DHT22;52058;49.822;6.754;2023-04-30T11:33:32;20.21;51.03
65460;DHT22;52058;49.822;6.754;2023-04-30T11:36:00;19.94;51.38
65460;DHT22;52058;49.822;6.754;2023-04-30T11:38:28;19.77;48.56
65460;DHT22;52058;49.822;6.754;2023-04-30T11:40:56;19.56;50.23
65460;DHT22;52058;49.822;6.754;2023-04-30T11:43:24;19.51;50.69
65460;DHT22;52058;49.822;6.754;2023-04-30T11:46:06;19.31;48.87
65460;DHT22;52058;49.822;6.754;2023-04-30T11:48:34;19.66;49.20
65460;DHT22;52058;49.822;6.754;2023-04-30T11:51:10;19.70;48.58
65460;DHT22;52058;49.822;6.754;2023-04-30T11:53:39;20.09;48.74
65460;DHT22;52058;49.822;6.754;2023-04-30T11:56:06;20.21;49.33
65460;DHT22;52058;49.822;6.754;2023-04-30T11:58:34;20.07;49.78
65460;DHT22;52058;49.822;6.754;2023-04-30T12:01:04;20.18;49.58
65460;DHT22;52058;49.822;6.754;2023-04-30T12:03:31;19.95;48.08
65460;DHT22;52058;49.822;6.754;2023-04-30T12:05:57;20.07;47.59
65460;DHT22;52058;49.822;6.754;2023-04-30T12:08:25;20.17;48.33
65460;DHT22;52058;49.822;6.754;2023-04-30T12:10:52;20.12;48.36
65460;DHT22;52058;49.822;6.754;2023-04-30T12:13:19;20.12;47.90
65460;DHT22;52058;49.822;6.754;2023-04-30T12:15:56;20.45;48.64
65460;DHT22;52058;49.822;6.754;2023-04-30T12:18:26;20.28;48.26
65460;DHT22;52058;49.822;6.754;2023-04-30T12:20:52;20.55;48.45
65460;DHT22;52058;49.822;6.754;2023-04-30T12:23:22;20.55;48.26
65460;DHT22;52058;49.822;6.754;2023-04-30T12:25:49;20.53;48.56
65460;DHT22;52058;49.822;6.754;2023-04-30T12:28:16;20.18;47.78
65460;DHT22;52058;49.822;6.754;2023-04-30T12:30:48;19.91;48.91
65460;DHT22;52058;49.822;6.754;2023-04-30T12:33:17;20.02;51.28
65460;DHT22;52058;49.822;6.754;2023-04-30T12:35:47;20.07;48.70
65460;DHT22;52058;49.822;6.754;2023-04-30T12:38:17;20.42;47.32
65460;DHT22;52058;49.822;6.754;2023-04-30T12:40:46;20.50;46.61
65460;DHT22;52058;49.822;6.754;2023-04-30T12:43:17;20.69;46.83
65460;DHT22;52058;49.822;6.754;2023-04-30T12:45:46;20.90;47.13
65460;DHT22;52058;49.822;6.754;2023-04-30T12:48:17;21.12;48.10
65460;DHT22;52058;49.822;6.754;2023-04-30T12:50:51;21.52;44.99
65460;DHT22;52058;49.822;6.754;2023-04-30T12:53:21;22.07;43.09
65460;DHT22;52058;49.822;6.754;2023-04-30T12:56:08;23.12;42.73
65460;DHT22;52058;49.822;6.754;2023-04-30T12:58:36;23.49;41.32
65460;DHT22;52058;49.822;6.754;2023-04-30T13:01:12;24.94;42.08
65460;DHT22;52058;49.822;6.754;2023-04-30T13:03:45;26.04;38.17
65460;DHT22;52058;49.822;6.754;2023-04-30T13:06:13;27.77;36.56
65460;DHT22;52058;49.822;6.754;2023-04-30T13:08:40;27.40;36.26
65460;DHT22;52058;49.822;6.754;2023-04-30T13:11:07;28.86;35.84
65460;DHT22;52058;49.822;6.754;2023-04-30T13:13:34;27.45;35.16
65460;DHT22;52058;49.822;6.754;2023-04-30T13:16:04;26.64;36.71
65460;DHT22;52058;49.822;6.754;2023-04-30T13:18:31;28.93;34.49
65460;DHT22;52058;49.822;6.754;2023-04-30T13:20:57;29.55;32.62
65460;DHT22;52058;49.822;6.754;2023-04-30T13:23:25;31.23;31.40
65460;DHT22;52058;49.822;6.754;2023-04-30T13:25:52;32.20;31.31
65460;DHT22;52058;49.822;6.754;2023-04-30T13:28:18;31.69;31.30
65460;DHT22;52058;49.822;6.754;2023-04-30T13:30:45;32.49;30.85
65460;DHT22;52058;49.822;6.754;2023-04-30T13:33:12;32.18;29.39
65460;DHT22;52058;49.822;6.754;2023-04-30T13:35:39;34.09;31.54
65460;DHT22;52058;49.822;6.754;2023-04-30T13:38:06;32.75;31.56
65460;DHT22;52058;49.822;6.754;2023-04-30T13:40:35;32.54;31.17
65460;DHT22;52058;49.822;6.754;2023-04-30T13:43:01;34.06;28.71
65460;DHT22;52058;49.822;6.754;2023-04-30T13:45:28;33.87;29.61
65460;DHT22;52058;49.822;6.754;2023-04-30T13:47:55;33.26;29.81
65460;DHT22;52058;49.822;6.754;2023-04-30T13:50:22;32.98;29.40
65460;DHT22;52058;49.822;6.754;2023-04-30T13:52:49;33.87;31.71
65460;DHT22;52058;49.822;6.754;2023-04-30T13:55:15;33.06;30.00
65460;DHT22;52058;49.822;6.754;2023-04-30T13:57:43;33.22;29.84
65460;DHT22;52058;49.822;6.754;2023-04-30T14:00:11;33.81;29.45
65460;DHT22;52058;49.822;6.754;2023-04-30T14:02:38;34.18;29.88
65460;DHT22;52058;49.822;6.754;2023-04-30T14:05:10;34.02;28.29
65460;DHT22;52058;49.822;6.754;2023-04-30T14:07:37;34.22;29.26
65460;DHT22;52058;49.822;6.754;2023-04-30T14:10:07;33.50;29.37
65460;DHT22;52058;49.822;6.754;2023-04-30T14:12:34;33.27;28.96
65460;DHT22;52058;49.822;6.754;2023-04-30T14:15:04;32.92;29.35
65460;DHT22;52058;49.822;6.754;2023-04-30T14:17:31;32.90;30.28
65460;DHT22;52058;49.822;6.754;2023-04-30T14:19:57;32.68;32.45
65460;DHT22;52058;49.822;6.754;2023-04-30T14:22:24;31.63;31.88
65460;DHT22;52058;49.822;6.754;2023-04-30T14:24:51;32.55;31.46
65460;DHT22;52058;49.822;6.754;2023-04-30T14:27:18;33.34;29.96
65460;DHT22;52058;49.822;6.754;2023-04-30T14:29:45;33.70;29.66
65460;DHT22;52058;49.822;6.754;2023-04-30T14:32:13;30.53;32.27
65460;DHT22;52058;49.822;6.754;2023-04-30T14:34:40;29.44;33.84
65460;DHT22;52058;49.822;6.754;2023-04-30T14:37:06;29.41;34.24
65460;DHT22;52058;49.822;6.754;2023-04-30T14:39:33;29.72;33.39
65460;DHT22;52058;49.822;6.754;2023-04-30T14:42:00;30.03;33.23
65460;DHT22;52058;49.822;6.754;2023-04-30T14:44:27;30.08;32.34
65460;DHT22;52058;49.822;6.754;2023-04-30T14:46:55;28.63;35.87
65460;DHT22;52058;49.822;6.754;2023-04-30T14:49:22;29.54;32.54
65460;DHT22;52058;49.822;6.754;2023-04-30T14:51:49;30.95;31.97
65460;DHT22;52058;49.822;6.754;2023-04-30T14:54:16;32.28;31.17
65460;DHT22;52058;49.822;6.754;2023-04-30T14:56:43;32.83;30.00
65460;DHT22;52058;49.822;6.754;2023-04-30T14:59:09;32.16;30.30
65460;DHT22;52058;49.822;6.754;2023-04-30T15:01:36;31.63;30.56
65460;DHT22;52058;49.822;6.754;2023-04-30T15:04:03;32.16;30.44
65460;DHT22;52058;49.822;6.754;2023-04-30T15:06:32;30.80;31.55
65460;DHT22;52058;49.822;6.754;2023-04-30T15:08:59;31.11;31.39
65460;DHT22;52058;49.822;6.754;2023-04-30T15:11:26;30.70;31.93
65460;DHT22;52058;49.822;6.754;2023-04-30T15:13:53;30.78;32.14
65460;DHT22;52058;49.822;6.754;2023-04-30T15:16:19;30.41;31.98
65460;DHT22;52058;49.822;6.754;2023-04-30T15:18:46;28.76;33.70
65460;DHT22;52058;49.822;6.754;2023-04-30T15:21:14;28.29;35.45
65460;DHT22;52058;49.822;6.754;2023-04-30T15:23:42;28.97;34.82
65460;DHT22;52058;49.822;6.754;2023-04-30T15:26:08;29.03;34.85
65460;DHT22;52058;49.822;6.754;2023-04-30T15:28:35;29.47;35.09
65460;DHT22;52058;49.822;6.754;2023-04-30T15:31:12;29.00;33.98
65460;DHT22;52058;49.822;6.754;2023-04-30T15:33:38;29.04;34.91
65460;DHT22;52058;49.822;6.754;2023-04-30T15:36:06;28.45;34.67
65460;DHT22;52058;49.822;6.754;2023-04-30T15:38:33;28.65;33.97